createdAt,value
2019-03-03T00:02:29.340Z,7.20
2019-03-03T00:07:34.225Z,7.30
2019-03-03T00:12:39.219Z,7.20
2019-03-03T00:17:43.871Z,7.20
2019-03-03T00:22:48.732Z,7.30
2019-03-03T00:27:53.090Z,7.30
2019-03-03T00:32:58.010Z,7.30
2019-03-03T00:38:08.709Z,7.30
2019-03-03T00:43:27.268Z,7.30
2019-03-03T00:48:54.340Z,7.20
2019-03-03T00:54:20.602Z,7.20
2019-03-03T00:59:47.103Z,7.10
2019-03-03T01:05:09.195Z,7.10
2019-03-03T01:10:36.793Z,7.00
2019-03-03T01:16:06.943Z,7.00
2019-03-03T01:21:32.662Z,7.00
2019-03-03T01:26:37.567Z,7.00
2019-03-03T01:31:42.224Z,7.00
2019-03-03T01:36:47.075Z,7.00
2019-03-03T01:41:51.656Z,7.10
2019-03-03T01:46:56.020Z,7.10
2019-03-03T01:52:02.327Z,7.10
2019-03-03T01:57:07.224Z,7.10
2019-03-03T02:02:12.230Z,7.10
2019-03-03T02:07:16.903Z,7.20
2019-03-03T02:12:21.923Z,7.20
2019-03-03T02:17:29.507Z,7.20
2019-03-03T02:22:33.872Z,7.20
2019-03-03T02:27:38.616Z,7.20
2019-03-03T02:32:43.342Z,7.20
2019-03-03T02:37:48.246Z,7.20
2019-03-03T02:42:52.972Z,7.10
2019-03-03T02:47:58.244Z,7.10
2019-03-03T02:53:03.021Z,7.10
2019-03-03T02:58:07.534Z,7.00
2019-03-03T03:03:13.125Z,7.00
2019-03-03T03:08:27.726Z,7.00
2019-03-03T03:13:49.715Z,7.00
2019-03-03T03:19:02.856Z,7.00
2019-03-03T03:24:32.420Z,6.90
2019-03-03T03:30:05.288Z,6.80
2019-03-03T03:35:46.713Z,6.70
2019-03-03T03:41:22.469Z,6.80
2019-03-03T03:46:39.250Z,6.90
2019-03-03T03:52:02.950Z,6.90
2019-03-03T03:57:17.855Z,6.80
2019-03-03T04:02:56.276Z,6.80
2019-03-03T04:08:11.729Z,7.00
2019-03-03T04:13:32.596Z,7.00
2019-03-03T04:18:43.701Z,7.00
2019-03-03T04:24:14.029Z,7.00
2019-03-03T04:29:41.667Z,6.80
2019-03-03T04:35:08.926Z,6.80
2019-03-03T04:40:25.323Z,6.80
2019-03-03T04:45:48.729Z,6.70
2019-03-03T04:51:24.572Z,6.60
2019-03-03T04:56:58.133Z,6.60
2019-03-03T05:02:22.041Z,6.50
2019-03-03T05:07:54.654Z,6.30
2019-03-03T05:13:15.492Z,6.40
2019-03-03T05:18:28.395Z,6.40
2019-03-03T05:23:33.181Z,6.30
2019-03-03T05:28:39.240Z,6.30
2019-03-03T05:33:44.470Z,6.30
2019-03-03T05:38:50.166Z,6.30
2019-03-03T05:43:54.715Z,6.20
2019-03-03T05:48:59.365Z,6.10
2019-03-03T05:54:03.827Z,6.10
2019-03-03T05:59:08.215Z,6.00
2019-03-03T06:04:18.098Z,6.00
2019-03-03T06:09:22.715Z,6.00
2019-03-03T06:14:27.558Z,6.10
2019-03-03T06:19:32.875Z,6.20
2019-03-03T06:24:37.443Z,6.30
2019-03-03T06:29:43.165Z,6.30
2019-03-03T06:34:48.830Z,6.40
2019-03-03T06:39:54.627Z,6.60
2019-03-03T06:45:01.696Z,6.80
2019-03-03T06:50:07.938Z,7.10
2019-03-03T06:55:17.267Z,8.10
2019-03-03T07:00:22.514Z,8.90
2019-03-03T07:05:28.072Z,9.00
2019-03-03T07:10:34.300Z,8.90
2019-03-03T07:15:40.928Z,8.60
2019-03-03T07:20:46.905Z,9.30
2019-03-03T07:25:52.929Z,10.60
2019-03-03T07:30:59.141Z,10.80
2019-03-03T07:36:04.073Z,10.80
2019-03-03T07:41:08.656Z,11.00
2019-03-03T07:46:25.439Z,12.30
2019-03-03T07:51:32.837Z,12.60
2019-03-03T07:56:41.968Z,13.10
2019-03-03T08:01:53.568Z,13.20
2019-03-03T08:07:01.268Z,13.00
2019-03-03T08:12:06.287Z,12.60
2019-03-03T08:17:11.871Z,11.80
2019-03-03T08:22:16.814Z,11.20
2019-03-03T08:27:22.148Z,10.50
2019-03-03T08:39:17.215Z,9.80
2019-03-03T08:44:41.863Z,10.90
2019-03-03T08:49:57.406Z,12.90
2019-03-03T09:01:45.201Z,12.60
2019-03-03T09:19:49.643Z,15.60
2019-03-03T09:31:14.849Z,16.90
2019-03-03T09:36:46.529Z,16.10
2019-03-03T09:42:39.438Z,15.40
2019-03-03T09:48:16.348Z,14.90
2019-03-03T09:53:42.524Z,14.90
2019-03-03T09:59:32.750Z,14.70
2019-03-03T10:04:59.922Z,13.70
2019-03-03T10:10:52.569Z,13.20
2019-03-03T10:16:25.549Z,12.70
2019-03-03T10:28:53.736Z,12.60
2019-03-03T10:34:18.219Z,12.40
2019-03-03T10:39:45.285Z,13.90
2019-03-03T10:44:58.452Z,14.00
2019-03-03T10:50:18.068Z,14.20
2019-03-03T10:55:53.256Z,14.40
2019-03-03T11:01:04.897Z,14.60
2019-03-03T11:06:52.218Z,14.90
2019-03-03T11:12:28.179Z,14.00
2019-03-03T11:17:56.381Z,13.40
2019-03-03T11:23:29.875Z,13.40
2019-03-03T11:29:18.421Z,12.90
2019-03-03T11:34:32.776Z,12.50
2019-03-03T11:45:59.978Z,12.80
2019-03-03T11:51:16.913Z,12.70
2019-03-03T11:56:31.138Z,12.70
2019-03-03T12:01:56.986Z,12.90
2019-03-03T12:07:15.280Z,13.00
2019-03-03T12:12:37.705Z,12.70
2019-03-03T12:18:01.673Z,12.60
2019-03-03T12:23:19.068Z,12.20
2019-03-03T12:28:42.393Z,12.30
2019-03-03T12:34:25.498Z,12.60
2019-03-03T12:39:50.134Z,12.80
2019-03-03T12:45:02.182Z,12.90
2019-03-03T12:50:32.827Z,12.60
2019-03-03T12:55:46.522Z,13.10
2019-03-03T13:01:08.703Z,13.40
2019-03-03T13:06:24.668Z,13.50
2019-03-03T13:11:36.601Z,13.10
2019-03-03T13:16:56.493Z,13.20
2019-03-03T13:22:36.665Z,13.40
2019-03-03T13:27:50.039Z,13.20
2019-03-03T13:33:12.843Z,13.50
2019-03-03T13:38:36.466Z,13.50
2019-03-03T13:43:40.921Z,13.50
2019-03-03T13:48:46.709Z,13.40
2019-03-03T13:53:51.575Z,13.10
2019-03-03T13:58:56.902Z,12.70
2019-03-03T14:04:01.818Z,12.40
2019-03-03T14:09:08.292Z,12.30
2019-03-03T14:14:13.910Z,12.30
2019-03-03T14:19:18.494Z,12.30
2019-03-03T14:24:23.008Z,12.20
2019-03-03T14:29:27.664Z,12.20
2019-03-03T14:34:33.384Z,12.50
2019-03-03T14:39:39.421Z,12.90
2019-03-03T14:44:44.921Z,13.10
2019-03-03T14:49:49.726Z,13.20
2019-03-03T14:54:54.642Z,13.30
2019-03-03T14:59:59.176Z,13.10
2019-03-03T15:05:03.587Z,13.20
2019-03-03T15:10:08.325Z,12.80
2019-03-03T15:15:13.189Z,12.30
2019-03-03T15:20:18.543Z,12.00
2019-03-03T15:25:22.998Z,11.90
2019-03-03T15:30:27.882Z,12.10
2019-03-03T15:35:32.967Z,12.10
2019-03-03T15:40:38.570Z,12.10
2019-03-03T15:45:44.474Z,11.90
2019-03-03T15:50:49.915Z,11.60
2019-03-03T15:55:57.760Z,11.40
2019-03-03T16:01:14.776Z,11.30
2019-03-03T16:06:20.326Z,11.30
2019-03-03T16:11:25.335Z,11.30
2019-03-03T16:16:31.109Z,11.30
2019-03-03T16:21:36.742Z,11.20
2019-03-03T16:26:43.384Z,11.00
2019-03-03T16:31:48.298Z,10.80
2019-03-03T16:36:53.817Z,10.70
2019-03-03T16:42:00.541Z,10.60
2019-03-03T16:47:05.384Z,10.50
2019-03-03T16:52:10.119Z,10.40
2019-03-03T16:57:16.824Z,10.30
2019-03-03T17:02:26.006Z,10.30
2019-03-03T17:07:36.152Z,10.20
2019-03-03T17:12:45.688Z,10.20
2019-03-03T17:17:54.008Z,10.10
2019-03-03T17:23:00.782Z,10.00
2019-03-03T17:28:10.408Z,9.80
2019-03-03T17:33:20.827Z,9.60
2019-03-03T17:38:26.511Z,9.40
2019-03-03T17:43:32.237Z,9.30
2019-03-03T17:48:58.625Z,9.20
2019-03-03T17:54:36.305Z,9.20
2019-03-03T17:59:39.071Z,9.20
2019-03-03T18:04:49.596Z,9.10
2019-03-03T18:10:00.795Z,8.90
2019-03-03T18:15:05.264Z,8.70
2019-03-03T18:20:14.638Z,8.60
2019-03-03T18:25:25.728Z,8.40
2019-03-03T18:30:31.294Z,8.20
2019-03-03T18:35:41.666Z,8.20
2019-03-03T18:40:53.914Z,8.20
2019-03-03T18:46:02.420Z,8.30
2019-03-03T18:51:14.176Z,8.40
2019-03-03T18:56:23.888Z,8.40
2019-03-03T19:01:44.537Z,8.40
2019-03-03T19:06:53.256Z,8.40
2019-03-03T19:11:58.582Z,8.20
2019-03-03T19:17:04.660Z,8.20
2019-03-03T19:22:13.989Z,8.50
2019-03-03T19:27:19.043Z,8.70
2019-03-03T19:32:25.716Z,8.60
2019-03-03T19:37:30.671Z,8.60
2019-03-03T19:42:36.236Z,8.50
2019-03-03T19:47:41.278Z,8.50
2019-03-03T19:52:48.801Z,8.40
2019-03-03T19:57:56.882Z,8.50
2019-03-03T20:03:01.769Z,8.60
2019-03-03T20:08:08.643Z,8.60
2019-03-03T20:13:13.151Z,8.50
2019-03-03T20:18:18.574Z,8.50
2019-03-03T20:23:24.970Z,8.40
2019-03-03T20:28:29.887Z,8.20
2019-03-03T20:33:34.358Z,8.30
2019-03-03T20:38:38.879Z,8.30
2019-03-03T20:43:43.800Z,8.20
2019-03-03T20:48:53.237Z,8.00
2019-03-03T20:53:59.105Z,8.00
2019-03-03T20:59:04.248Z,8.00
2019-03-03T21:04:11.652Z,7.80
2019-03-03T21:09:16.776Z,7.70
2019-03-03T21:14:21.683Z,7.60
2019-03-03T21:19:29.328Z,7.80
2019-03-03T21:24:34.420Z,8.00
2019-03-03T21:29:42.090Z,8.10
2019-03-03T21:34:46.988Z,8.20
2019-03-03T21:39:54.438Z,8.20
2019-03-03T21:44:59.225Z,8.20
2019-03-03T21:50:05.404Z,8.30
2019-03-03T21:55:10.587Z,8.50
2019-03-03T22:00:27.944Z,8.40
2019-03-03T22:05:32.522Z,8.30
2019-03-03T22:10:38.208Z,8.10
2019-03-03T22:15:42.677Z,7.90
2019-03-03T22:20:47.505Z,7.90
2019-03-03T22:25:52.696Z,8.10
2019-03-03T22:30:57.345Z,8.30
2019-03-03T22:36:02.316Z,8.50
2019-03-03T22:41:06.804Z,8.70
2019-03-03T22:46:11.423Z,8.80
2019-03-03T22:51:16.428Z,8.70
2019-03-03T22:56:24.670Z,8.70
2019-03-03T23:01:35.767Z,8.70
2019-03-03T23:07:18.478Z,8.70
2019-03-03T23:12:45.837Z,8.90
2019-03-03T23:18:13.180Z,9.00
2019-03-03T23:24:11.437Z,9.40
2019-03-03T23:29:16.199Z,9.80
2019-03-03T23:34:20.592Z,9.70
2019-03-03T23:39:25.465Z,9.90
2019-03-03T23:44:30.237Z,9.80
2019-03-03T23:49:35.487Z,9.90
2019-03-03T23:54:41.214Z,9.80
2019-03-03T23:59:45.538Z,9.90
